Eleva, Wisconsin
Current Conditions -  °F | °C
As of 7:56 AM on Saturday 22 Nov 2014 (Local Time) from KEAU Reporting Station
Haze Haze  
Wind Chill: 27°   Ceiling: 600
Heat Index: 35°   Visibility: 4mi
Dew Point: 32°   Wind: 12mph
Humidity: 89%   Direction: 210°SSW
Pressure: 29.81"   Gusts: NA
Location:  44.58°N, 91.47°W
Report Text: KEAU 221356Z 21010KT 4SM BR OVC006 02/00 A2981 RMK AO2 SLP104 T00170000
Loading
Personal Weather Stations






























Interactive Weather Map New forecast layout! Learn more

10-Day Weather Forecast

Advertisements
Track Severe Weather on mobile